Time;durP1;ratioP1;P1;durP2;ratioP2;P2;SDS_P1;SDS_P2;PMS_P1;PMS_P2;Temp;Humidity;BMP_temperature;BMP_pressure;BME280_temperature;BME280_humidity;BME280_pressure;Samples;Min_cycle;Max_cycle;Signal;HPM_P1;HPM_P2
2022/01/05 00:00:21;;;;;;;19.53;12.27;;;;;;;5.59;100.00;98936.81;5091527;28;20218;-68
2022/01/05 00:02:48;;;;;;;18.90;11.80;;;;;;;5.50;100.00;98915.81;5092847;28;20225;-68
2022/01/05 00:05:15;;;;;;;20.97;11.27;;;;;;;5.59;100.00;98930.91;5093060;28;20196;-69
2022/01/05 00:07:42;;;;;;;17.77;11.40;;;;;;;5.53;100.00;98928.47;5092860;28;20286;-68
2022/01/05 00:10:09;;;;;;;18.63;12.03;;;;;;;5.52;100.00;98931.88;5092934;28;20191;-68
2022/01/05 00:12:37;;;;;;;14.90;11.37;;;;;;;5.46;100.00;98934.53;5092894;28;20195;-68
2022/01/05 00:15:05;;;;;;;15.73;10.80;;;;;;;5.46;100.00;98934.53;5092840;28;20196;-68
2022/01/05 00:17:32;;;;;;;19.27;10.30;;;;;;;5.43;100.00;98934.59;5092300;28;20207;-68
2022/01/05 00:19:59;;;;;;;17.70;10.67;;;;;;;5.40;100.00;98930.38;5089175;28;20215;-68
2022/01/05 00:22:26;;;;;;;18.93;10.43;;;;;;;5.44;100.00;98951.50;5092427;28;20395;-69
2022/01/05 00:24:53;;;;;;;15.73;11.30;;;;;;;5.41;100.00;98941.38;5091603;28;20213;-68
2022/01/05 00:27:20;;;;;;;15.73;10.33;;;;;;;5.42;100.00;98954.09;5091196;28;20203;-69
2022/01/05 00:29:48;;;;;;;14.37;10.43;;;;;;;5.42;100.00;98945.63;5092247;28;20200;-68
2022/01/05 00:32:15;;;;;;;13.07;10.83;;;;;;;5.40;100.00;98947.31;5092443;28;20192;-69
2022/01/05 00:34:42;;;;;;;27.10;10.33;;;;;;;5.38;100.00;98938.91;5092496;28;20199;-68
2022/01/05 00:37:09;;;;;;;13.13;10.23;;;;;;;5.37;100.00;98944.84;5092359;28;20195;-68
2022/01/05 00:39:36;;;;;;;13.33;10.27;;;;;;;5.33;100.00;98945.78;5090308;28;20216;-68
2022/01/05 00:42:04;;;;;;;16.43;10.00;;;;;;;5.27;100.00;98934.81;5092315;28;20195;-68
2022/01/05 00:44:31;;;;;;;14.90;10.47;;;;;;;5.23;100.00;98940.81;5092215;28;20202;-68
2022/01/05 00:47:00;;;;;;;15.80;10.57;;;;;;;5.19;100.00;98946.84;5092023;28;20290;-68
2022/01/05 00:49:27;;;;;;;13.27;9.83;;;;;;;5.19;100.00;98951.91;5091898;28;20213;-68
2022/01/05 00:51:54;;;;;;;12.67;9.80;;;;;;;5.17;100.00;98947.72;5092248;28;20195;-68
2022/01/05 00:54:20;;;;;;;16.90;9.53;;;;;;;5.16;100.00;98946.88;5091778;28;20207;-68
2022/01/05 00:56:47;;;;;;;17.63;10.50;;;;;;;5.16;100.00;98936.72;5091799;28;20204;-68
2022/01/05 00:59:14;;;;;;;15.33;10.87;;;;;;;5.15;100.00;98939.28;5092120;28;20218;-68
2022/01/05 01:01:41;;;;;;;14.10;9.63;;;;;;;4.96;100.00;98917.56;5091792;28;20222;-68
2022/01/05 01:04:09;;;;;;;11.60;10.43;;;;;;;5.13;100.00;98946.09;5091709;28;20198;-68
2022/01/05 01:06:36;;;;;;;14.70;11.00;;;;;;;5.11;100.00;98938.47;5091984;28;20203;-68
2022/01/05 01:09:03;;;;;;;11.80;9.57;;;;;;;5.06;100.00;98944.50;5091503;28;20195;-68
2022/01/05 01:11:30;;;;;;;19.63;10.13;;;;;;;5.03;100.00;98932.69;5091860;28;20599;-69
2022/01/05 01:13:57;;;;;;;13.67;10.00;;;;;;;4.95;100.00;98911.63;5091734;28;20199;-68
2022/01/05 01:16:24;;;;;;;18.77;11.37;;;;;;;4.98;100.00;98921.75;5091319;28;20195;-68
2022/01/05 01:18:51;;;;;;;14.90;11.17;;;;;;;4.89;100.00;98915.97;5091775;28;20203;-68
2022/01/05 01:21:19;;;;;;;18.57;12.97;;;;;;;4.86;100.00;98926.19;5091779;28;20587;-68
2022/01/05 01:23:54;;;;;;;15.90;12.40;;;;;;;4.91;100.00;98927.78;5090536;28;20198;-67
2022/01/05 01:26:23;;;;;;;19.20;11.53;;;;;;;4.87;100.00;98913.47;5089962;28;20202;-68
2022/01/05 01:28:50;;;;;;;18.03;11.37;;;;;;;4.78;100.00;98913.63;5090684;28;20204;-68
2022/01/05 01:31:17;;;;;;;15.17;10.93;;;;;;;4.76;100.00;98915.31;5091112;28;20196;-68
2022/01/05 01:33:44;;;;;;;14.83;11.57;;;;;;;4.71;100.00;98906.94;5091624;28;20202;-68
2022/01/05 01:36:11;;;;;;;16.90;11.03;;;;;;;4.62;100.00;98912.16;5091038;28;20217;-68
2022/01/05 01:38:41;;;;;;;11.13;10.00;;;;;;;4.59;100.00;98904.56;5091724;28;20675;-68
2022/01/05 01:41:08;;;;;;;14.47;9.27;;;;;;;4.59;100.00;98902.00;5090949;28;20203;-68
2022/01/05 01:43:36;;;;;;;16.13;9.90;;;;;;;4.51;100.00;98898.75;5091224;28;20199;-68
2022/01/05 01:46:04;;;;;;;14.03;9.93;;;;;;;4.58;100.00;98910.50;5089849;28;20633;-68
2022/01/05 01:48:31;;;;;;;12.33;10.17;;;;;;;4.56;100.00;98902.06;5090735;28;20294;-69
2022/01/05 01:50:58;;;;;;;10.47;9.37;;;;;;;4.50;100.00;98897.91;5088445;28;20199;-68
2022/01/05 01:53:24;;;;;;;9.97;8.97;;;;;;;4.48;100.00;98903.88;5090434;28;20199;-68
2022/01/05 01:55:55;;;;;;;15.97;9.07;;;;;;;4.46;100.00;98892.94;5091142;28;20594;-68
2022/01/05 01:58:25;;;;;;;13.27;10.00;;;;;;;4.51;100.00;98903.84;5090459;28;20579;-68
2022/01/05 02:00:52;;;;;;;10.03;9.07;;;;;;;4.47;100.00;98899.66;5090951;28;20211;-68
2022/01/05 02:03:21;;;;;;;10.73;9.23;;;;;;;4.48;100.00;98908.97;5090325;28;20245;-68
2022/01/05 02:05:48;;;;;;;10.80;8.30;;;;;;;4.45;100.00;98898.84;5089959;28;20299;-69
2022/01/05 02:08:15;;;;;;;12.07;7.90;;;;;;;4.32;100.00;98882.09;5089910;28;20203;-69
2022/01/05 02:10:43;;;;;;;8.40;7.43;;;;;;;4.22;100.00;98874.63;5090740;28;20191;-68
2022/01/05 02:13:11;;;;;;;8.23;7.43;;;;;;;4.28;100.00;98885.53;5090459;28;20199;-68
2022/01/05 02:15:40;;;;;;;6.97;6.37;;;;;;;4.09;100.00;98875.66;5090817;28;20229;-68
2022/01/05 02:18:57;;;;;;;7.63;6.70;;;;;;;4.03;100.00;98882.50;5090575;28;20282;-68
2022/01/05 02:21:05;;;;;;;7.40;6.83;;;;;;;4.12;100.00;98865.47;5089897;28;20272;-69
2022/01/05 02:23:32;;;;;;;8.93;6.83;;;;;;;4.10;100.00;98857.00;5088876;28;20716;-68
2022/01/05 02:25:59;;;;;;;7.40;6.70;;;;;;;4.13;100.00;98882.38;5090862;28;20652;-68
2022/01/05 02:28:26;;;;;;;7.87;6.50;;;;;;;4.07;100.00;98876.53;5090094;28;20333;-69
2022/01/05 02:30:53;;;;;;;6.53;6.03;;;;;;;4.11;100.00;98879.00;5090504;28;20200;-68
2022/01/05 02:33:22;;;;;;;6.10;5.60;;;;;;;4.15;100.00;98874.72;5090190;28;20211;-68
2022/01/05 02:35:49;;;;;;;7.50;6.53;;;;;;;4.03;100.00;98855.44;5089011;28;20282;-69
2022/01/05 02:38:20;;;;;;;6.53;5.93;;;;;;;4.19;100.00;98879.75;5090587;28;20575;-71
2022/01/05 02:40:47;;;;;;;8.03;7.33;;;;;;;4.12;100.00;98885.75;5090213;28;20217;-71
2022/01/05 02:43:14;;;;;;;7.90;7.30;;;;;;;4.06;100.00;98892.59;5089952;28;20206;-71
2022/01/05 02:45:41;;;;;;;14.03;8.37;;;;;;;3.89;100.00;98880.09;5089769;28;20198;-72
2022/01/05 02:48:08;;;;;;;10.27;9.23;;;;;;;3.98;100.00;98889.28;5089769;28;20199;-71
2022/01/05 02:50:35;;;;;;;11.40;8.33;;;;;;;3.94;100.00;98893.56;5090051;28;20204;-71
2022/01/05 02:53:02;;;;;;;12.67;9.87;;;;;;;3.86;100.00;98890.28;5090289;28;20199;-71
2022/01/05 02:55:30;;;;;;;19.73;10.87;;;;;;;3.82;100.00;98888.63;5089954;28;20199;-72
2022/01/05 02:57:57;;;;;;;10.93;9.50;;;;;;;3.81;100.00;98884.44;5090158;28;20211;-72
2022/01/05 03:00:24;;;;;;;16.07;10.23;;;;;;;3.82;100.00;98891.16;5089744;28;20223;-74
2022/01/05 03:02:50;;;;;;;13.87;10.47;;;;;;;3.76;100.00;98868.44;5089681;28;20325;-70
2022/01/05 03:05:19;;;;;;;15.40;10.37;;;;;;;3.85;100.00;98885.22;5090284;28;20191;-70
2022/01/05 03:07:46;;;;;;;12.33;10.43;;;;;;;3.86;100.00;98877.63;5089982;28;20244;-70
2022/01/05 03:10:14;;;;;;;14.47;10.47;;;;;;;3.88;100.00;98877.63;5089917;28;20199;-70
2022/01/05 03:12:43;;;;;;;16.47;9.63;;;;;;;3.88;100.00;98885.22;5090221;28;20199;-70
2022/01/05 03:15:11;;;;;;;12.20;9.20;;;;;;;3.74;100.00;98862.56;5088414;28;20207;-72
2022/01/05 03:17:38;;;;;;;13.60;10.10;;;;;;;3.87;100.00;98886.91;5088639;28;20206;-71
2022/01/05 03:20:06;;;;;;;11.53;10.33;;;;;;;3.80;100.00;98859.94;5088026;28;20229;-71
2022/01/05 03:22:33;;;;;;;9.83;8.83;;;;;;;3.88;100.00;98870.81;5092967;28;20195;-71
2022/01/05 03:25:00;;;;;;;10.87;9.30;;;;;;;3.86;100.00;98872.53;5093842;28;20210;-71
2022/01/05 03:27:27;;;;;;;11.40;10.03;;;;;;;3.86;100.00;98871.69;5093786;28;20560;-71
2022/01/05 03:29:56;;;;;;;12.90;8.70;;;;;;;3.78;100.00;98854.03;5093546;28;20195;-71
2022/01/05 03:32:24;;;;;;;10.93;8.43;;;;;;;3.73;100.00;98845.66;5093471;28;20735;-71
2022/01/05 03:34:52;;;;;;;12.33;8.33;;;;;;;3.74;100.00;98867.63;5093749;28;20200;-72
2022/01/05 03:37:19;;;;;;;8.70;7.63;;;;;;;3.67;100.00;98864.31;5093372;28;20257;-71
2022/01/05 03:39:46;;;;;;;9.90;8.93;;;;;;;3.68;100.00;98872.75;5093733;28;20194;-72
2022/01/05 03:42:12;;;;;;;9.30;8.43;;;;;;;3.61;100.00;98861.00;5093553;28;20233;-71
2022/01/05 03:44:39;;;;;;;9.30;8.53;;;;;;;3.58;100.00;98861.88;5093419;28;20329;-71
2022/01/05 03:47:08;;;;;;;10.67;9.07;;;;;;;3.60;100.00;98859.31;5093105;28;20571;-71
2022/01/05 03:49:35;;;;;;;10.33;8.07;;;;;;;3.56;100.00;98840.78;5093721;28;20211;-71
2022/01/05 03:52:03;;;;;;;10.73;8.53;;;;;;;3.64;100.00;98855.91;5093482;28;20196;-71
2022/01/05 03:54:29;;;;;;;11.67;8.60;;;;;;;3.64;100.00;98853.38;5093566;28;20195;-72
2022/01/05 03:56:56;;;;;;;14.30;10.70;;;;;;;3.57;100.00;98839.09;5092290;28;20199;-72
2022/01/05 03:59:23;;;;;;;16.17;9.23;;;;;;;3.59;100.00;98848.34;5091211;28;20208;-72
2022/01/05 04:01:50;;;;;;;11.03;8.10;;;;;;;3.62;100.00;98839.84;5091314;28;20694;-71
2022/01/05 04:04:18;;;;;;;9.30;8.33;;;;;;;3.58;100.00;98836.56;5090696;28;20202;-71
2022/01/05 04:06:45;;;;;;;8.80;7.93;;;;;;;3.54;100.00;98849.25;5091897;28;20200;-71
2022/01/05 04:09:12;;;;;;;12.07;7.00;;;;;;;3.50;100.00;98842.53;5090612;28;20583;-71
2022/01/05 04:11:39;;;;;;;8.73;7.50;;;;;;;3.38;100.00;98837.59;5091574;28;20211;-70
2022/01/05 04:14:06;;;;;;;7.07;6.47;;;;;;;3.42;100.00;98845.19;5091414;28;20851;-73
2022/01/05 04:16:33;;;;;;;7.83;7.13;;;;;;;3.45;100.00;98839.22;5090154;28;20202;-70
2022/01/05 04:19:00;;;;;;;10.13;9.13;;;;;;;3.48;100.00;98851.88;5090388;28;20206;-71
2022/01/05 04:21:28;;;;;;;11.07;8.00;;;;;;;3.46;100.00;98844.25;5090514;28;20242;-70
2022/01/05 04:23:55;;;;;;;10.80;9.73;;;;;;;3.46;100.00;98851.03;5091524;28;20198;-70
2022/01/05 04:26:22;;;;;;;11.77;8.63;;;;;;;3.45;100.00;98860.34;5091405;28;20204;-70
2022/01/05 04:28:48;;;;;;;7.00;6.40;;;;;;;3.36;100.00;98854.53;5091576;28;20693;-71
2022/01/05 04:31:15;;;;;;;6.00;5.67;;;;;;;3.34;100.00;98846.09;5091738;28;20198;-70
2022/01/05 04:33:42;;;;;;;5.83;5.43;;;;;;;3.24;100.00;98839.44;5092472;28;20762;-70
2022/01/05 04:36:09;;;;;;;5.90;5.50;;;;;;;3.22;100.00;98824.25;5092560;28;20229;-72
2022/01/05 04:38:38;;;;;;;8.10;6.37;;;;;;;3.30;100.00;98832.63;5092132;28;20218;-72
2022/01/05 04:41:05;;;;;;;10.17;8.00;;;;;;;3.37;100.00;98841.00;5092687;28;20579;-72
2022/01/05 04:43:32;;;;;;;15.17;10.20;;;;;;;3.39;100.00;98849.44;5090039;28;20683;-71
2022/01/05 04:45:59;;;;;;;25.77;13.50;;;;;;;3.42;100.00;98854.47;5092420;28;20282;-72
2022/01/05 04:48:26;;;;;;;22.37;12.70;;;;;;;3.39;100.00;98839.28;5092436;28;20683;-73
2022/01/05 04:50:53;;;;;;;29.60;14.07;;;;;;;3.47;100.00;98856.09;5091977;28;20200;-73
2022/01/05 04:53:20;;;;;;;20.10;12.00;;;;;;;3.50;100.00;98857.75;5092515;28;20764;-73
2022/01/05 04:55:48;;;;;;;11.20;8.67;;;;;;;3.47;100.00;98852.72;5092292;28;20195;-73
2022/01/05 04:58:15;;;;;;;8.27;7.57;;;;;;;3.55;100.00;98861.09;5092015;28;20199;-73
2022/01/05 05:00:42;;;;;;;8.40;7.70;;;;;;;3.49;100.00;98845.94;5092175;28;20315;-72
2022/01/05 05:03:10;;;;;;;7.43;6.83;;;;;;;3.57;100.00;98864.44;5089550;28;20744;-74
2022/01/05 05:05:37;;;;;;;7.00;6.10;;;;;;;3.59;100.00;98862.69;5092099;28;20199;-69
2022/01/05 05:08:05;;;;;;;6.13;5.73;;;;;;;3.61;100.00;98871.16;5091784;28;20203;-70
2022/01/05 05:10:32;;;;;;;6.53;5.90;;;;;;;3.58;100.00;98866.97;5090682;28;20195;-69
2022/01/05 05:13:07;;;;;;;10.23;8.20;;;;;;;3.43;100.00;98845.97;5091578;28;20203;-72
2022/01/05 05:15:34;;;;;;;7.17;6.47;;;;;;;3.50;100.00;98858.59;5090405;28;20195;-68
2022/01/05 05:18:01;;;;;;;7.10;6.50;;;;;;;3.52;100.00;98879.66;5091480;28;20205;-71
2022/01/05 05:20:28;;;;;;;9.07;5.90;;;;;;;3.45;100.00;98854.44;5091259;28;20230;-69
2022/01/05 05:22:55;;;;;;;7.63;6.93;;;;;;;3.53;100.00;98873.75;5091408;28;20195;-69
2022/01/05 05:25:22;;;;;;;10.13;7.80;;;;;;;3.51;100.00;98879.69;5091776;28;20717;-68
2022/01/05 05:27:49;;;;;;;10.57;8.80;;;;;;;3.45;100.00;98874.69;5091706;28;20675;-69
2022/01/05 05:30:17;;;;;;;9.20;7.80;;;;;;;3.47;100.00;98880.56;5091300;28;20200;-69
2022/01/05 05:32:44;;;;;;;11.47;9.13;;;;;;;3.46;100.00;98886.50;5091557;28;20210;-68
2022/01/05 05:35:11;;;;;;;8.77;7.97;;;;;;;3.46;100.00;98881.41;5091076;28;20199;-67
2022/01/05 05:37:38;;;;;;;10.97;9.67;;;;;;;3.43;100.00;98891.59;5091578;28;20195;-69
2022/01/05 05:40:07;;;;;;;13.23;9.50;;;;;;;3.43;100.00;98884.84;5090886;28;20199;-69
2022/01/05 05:42:34;;;;;;;21.37;9.50;;;;;;;3.41;100.00;98894.16;5089290;28;20230;-70
2022/01/05 05:45:01;;;;;;;9.13;7.93;;;;;;;3.30;100.00;98898.47;5090322;28;20227;-68
2022/01/05 05:47:30;;;;;;;10.97;8.93;;;;;;;3.27;100.00;98895.97;5091203;28;20195;-68
2022/01/05 05:49:57;;;;;;;8.67;7.77;;;;;;;3.24;100.00;98900.22;5090815;28;20214;-68
2022/01/05 05:52:23;;;;;;;8.40;7.60;;;;;;;3.20;100.00;98898.59;5090813;28;20669;-68
2022/01/05 05:54:52;;;;;;;12.70;8.27;;;;;;;3.18;100.00;98904.50;5091158;28;20713;-68
2022/01/05 05:57:18;;;;;;;9.90;8.93;;;;;;;3.15;100.00;98912.13;5090871;28;20195;-68
2022/01/05 05:59:45;;;;;;;8.57;7.70;;;;;;;3.08;100.00;98905.41;5091144;28;20209;-68
2022/01/05 06:02:12;;;;;;;15.67;8.70;;;;;;;3.09;100.00;98917.25;5090402;28;20325;-69
2022/01/05 06:04:41;;;;;;;9.07;8.00;;;;;;;3.06;100.00;98909.66;5090344;28;20207;-69
2022/01/05 06:07:07;;;;;;;9.73;8.77;;;;;;;3.11;100.00;98914.69;5089344;28;20735;-69
2022/01/05 06:09:34;;;;;;;9.97;8.77;;;;;;;3.12;100.00;98912.16;5089957;28;20199;-69
2022/01/05 06:12:01;;;;;;;10.23;7.67;;;;;;;3.08;100.00;98895.28;5090738;28;20210;-68
2022/01/05 06:14:28;;;;;;;8.27;7.43;;;;;;;3.10;100.00;98892.75;5089681;28;20589;-69
2022/01/05 06:16:55;;;;;;;7.73;7.07;;;;;;;3.12;100.00;98896.94;5090658;28;20212;-68
2022/01/05 06:19:22;;;;;;;11.33;6.60;;;;;;;3.22;100.00;98912.06;5090420;28;20200;-68
2022/01/05 06:21:51;;;;;;;8.83;7.93;;;;;;;3.23;100.00;98918.81;5090757;28;20219;-69
2022/01/05 06:24:18;;;;;;;13.40;11.67;;;;;;;3.16;100.00;98918.88;5090212;28;20191;-69
2022/01/05 06:26:45;;;;;;;11.93;9.83;;;;;;;3.23;100.00;98923.88;5089710;28;20734;-69
2022/01/05 06:29:13;;;;;;;19.50;9.07;;;;;;;3.18;100.00;98922.22;5089722;28;20195;-69
2022/01/05 06:31:40;;;;;;;8.00;7.07;;;;;;;3.17;100.00;98925.59;5089702;28;20207;-69
2022/01/05 06:34:07;;;;;;;9.07;8.27;;;;;;;3.26;100.00;98937.38;5090574;28;20226;-69
2022/01/05 06:36:34;;;;;;;12.83;9.67;;;;;;;3.27;100.00;98933.13;5088969;28;20613;-69
2022/01/05 06:39:03;;;;;;;16.93;10.40;;;;;;;3.24;100.00;98944.13;5090196;28;20199;-69
2022/01/05 06:41:30;;;;;;;15.40;11.00;;;;;;;3.15;100.00;98929.00;5089857;28;20202;-69
2022/01/05 06:43:57;;;;;;;14.77;11.77;;;;;;;3.23;100.00;98944.16;5090643;28;20195;-69
2022/01/05 06:46:24;;;;;;;17.60;12.17;;;;;;;3.12;100.00;98932.41;5089813;28;20217;-69
2022/01/05 06:48:51;;;;;;;30.47;15.83;;;;;;;3.25;100.00;98947.50;5084577;28;20216;-69
2022/01/05 06:51:18;;;;;;;24.43;13.13;;;;;;;3.28;100.00;98950.00;5089554;28;20218;-69
2022/01/05 06:53:44;;;;;;;12.40;8.83;;;;;;;3.25;100.00;98960.16;5089806;28;20705;-69
2022/01/05 06:56:13;;;;;;;11.57;9.30;;;;;;;3.24;100.00;98966.06;5089392;28;20304;-69
2022/01/05 06:58:39;;;;;;;17.20;8.50;;;;;;;3.21;100.00;98972.00;5090176;28;20207;-69
2022/01/05 07:01:06;;;;;;;19.27;14.13;;;;;;;3.22;100.00;98970.31;5089558;28;20191;-69
2022/01/05 07:03:33;;;;;;;18.13;11.77;;;;;;;3.20;100.00;98956.84;5089667;28;20227;-69
2022/01/05 07:06:00;;;;;;;19.37;12.00;;;;;;;3.22;100.00;98967.78;5090028;28;20195;-68
2022/01/05 07:08:27;;;;;;;10.27;8.03;;;;;;;3.17;100.00;98971.19;5088683;28;20199;-69
2022/01/05 07:10:54;;;;;;;8.80;7.93;;;;;;;3.10;100.00;98963.66;5088375;28;20203;-69
2022/01/05 07:13:22;;;;;;;18.00;10.63;;;;;;;3.12;100.00;98965.31;5089629;28;20206;-69
2022/01/05 07:15:49;;;;;;;17.03;9.53;;;;;;;3.04;100.00;98969.59;5089884;28;20199;-69
2022/01/05 07:18:17;;;;;;;14.07;9.27;;;;;;;3.06;100.00;98967.06;5089315;28;20205;-69
2022/01/05 07:20:45;;;;;;;9.13;8.27;;;;;;;3.09;100.00;98967.88;5089216;28;20192;-69
2022/01/05 07:23:12;;;;;;;11.10;8.53;;;;;;;3.11;100.00;98966.16;5089713;28;20282;-69
2022/01/05 07:25:39;;;;;;;12.03;8.63;;;;;;;3.03;100.00;98934.16;5089873;28;20199;-68
2022/01/05 07:28:05;;;;;;;11.23;9.40;;;;;;;3.15;100.00;98950.09;5089600;28;20207;-68
2022/01/05 07:30:34;;;;;;;9.63;8.83;;;;;;;3.24;100.00;98966.91;5089393;28;20203;-68
2022/01/05 07:33:01;;;;;;;10.37;8.53;;;;;;;3.28;100.00;98967.72;5088757;28;20695;-69
2022/01/05 07:35:28;;;;;;;9.93;9.00;;;;;;;3.33;100.00;98958.41;5088873;28;20195;-60
2022/01/05 07:37:55;;;;;;;13.70;9.43;;;;;;;3.34;100.00;98952.47;5088457;28;20204;-59
2022/01/05 07:40:21;;;;;;;12.47;9.63;;;;;;;3.37;100.00;98947.38;5089364;28;20202;-60
2022/01/05 07:42:48;;;;;;;244.07;20.03;;;;;;;3.41;100.00;98956.66;5090134;28;20270;-61
2022/01/05 07:45:15;;;;;;;53.77;9.93;;;;;;;3.49;100.00;98963.31;5088905;28;20199;-61
2022/01/05 07:47:44;;;;;;;17.23;8.73;;;;;;;3.56;100.00;98964.09;5089465;28;20245;-60
2022/01/05 07:50:14;;;;;;;17.07;10.63;;;;;;;3.64;100.00;98963.19;5088150;28;20643;-60
2022/01/05 07:52:41;;;;;;;20.67;13.27;;;;;;;3.73;100.00;98962.25;5086214;28;20298;-68
2022/01/05 07:55:09;;;;;;;17.83;13.70;;;;;;;3.81;100.00;98952.91;5088046;28;20222;-68
2022/01/05 07:57:36;;;;;;;130.60;30.97;;;;;;;3.87;100.00;98950.28;5087474;28;20195;-68
2022/01/05 08:00:05;;;;;;;22.60;15.90;;;;;;;3.96;100.00;98959.50;5088194;28;20214;-67
2022/01/05 08:02:32;;;;;;;24.40;17.73;;;;;;;4.08;100.00;98956.81;5085755;28;20239;-68
2022/01/05 08:05:00;;;;;;;31.20;18.67;;;;;;;4.16;100.00;98955.88;5087655;28;20199;-69
2022/01/05 08:07:27;;;;;;;29.27;17.17;;;;;;;4.27;100.00;98949.81;5089743;28;20213;-71
2022/01/05 08:09:54;;;;;;;29.63;16.30;;;;;;;4.36;100.00;98949.72;5091912;28;20226;-70
2022/01/05 08:12:21;;;;;;;23.40;14.87;;;;;;;4.45;100.00;98957.22;5091898;28;20211;-68
2022/01/05 08:14:48;;;;;;;15.43;11.53;;;;;;;4.54;100.00;98969.78;5091647;28;20555;-69
2022/01/05 08:17:15;;;;;;;15.30;11.83;;;;;;;4.61;100.00;98969.69;5091605;28;20632;-69
2022/01/05 08:19:42;;;;;;;14.60;10.93;;;;;;;4.78;100.00;98969.47;5089528;28;20265;-67
2022/01/05 08:22:11;;;;;;;11.67;10.53;;;;;;;4.87;100.00;98976.97;5090600;28;20248;-68
2022/01/05 08:24:38;;;;;;;11.13;9.80;;;;;;;4.97;100.00;98978.50;5089485;28;20203;-68
2022/01/05 08:27:05;;;;;;;12.37;10.13;;;;;;;5.12;100.00;98973.19;5091254;28;20683;-68
2022/01/05 08:29:32;;;;;;;15.27;11.30;;;;;;;5.22;100.00;98968.81;5089777;28;20294;-68
2022/01/05 08:32:02;;;;;;;12.30;10.43;;;;;;;5.31;100.00;98966.09;5091689;28;20691;-67
2022/01/05 08:34:29;;;;;;;10.37;9.50;;;;;;;5.46;100.00;98965.03;5091288;28;20229;-68
2022/01/05 08:36:56;;;;;;;12.70;11.30;;;;;;;5.59;100.00;98969.06;5090584;28;20200;-69
2022/01/05 08:39:25;;;;;;;15.03;12.50;;;;;;;5.67;100.00;98965.50;5091842;28;20718;-69
2022/01/05 08:41:52;;;;;;;18.23;13.20;;;;;;;5.80;100.00;98961.03;5091522;28;20290;-69
2022/01/05 08:44:19;;;;;;;17.83;11.73;;;;;;;5.93;100.00;98951.50;5091155;28;20222;-68
2022/01/05 08:46:46;;;;;;;17.40;11.70;;;;;;;6.00;100.00;98948.81;5092044;28;20214;-69
2022/01/05 08:49:14;;;;;;;13.47;11.37;;;;;;;6.08;100.00;98946.97;5091834;28;20203;-71
2022/01/05 08:51:43;;;;;;;16.60;11.83;;;;;;;6.19;100.00;98929.78;5092193;28;20230;-70
2022/01/05 08:54:10;;;;;;;19.60;13.40;;;;;;;6.34;100.00;98934.56;5091185;28;20204;-71
2022/01/05 08:56:39;;;;;;;15.67;12.50;;;;;;;6.41;100.00;98931.88;5091647;28;20278;-71
2022/01/05 08:59:06;;;;;;;19.93;16.43;;;;;;;6.46;100.00;98932.63;5090139;28;20203;-70
2022/01/05 09:01:33;;;;;;;15.37;11.23;;;;;;;6.57;100.00;98930.69;5090922;28;20755;-71
2022/01/05 09:04:00;;;;;;;29.03;17.40;;;;;;;6.63;100.00;98935.63;5091027;28;20204;-71
2022/01/05 09:06:27;;;;;;;18.80;13.40;;;;;;;6.74;100.00;98931.16;5090161;28;20230;-71
2022/01/05 09:08:54;;;;;;;15.33;12.33;;;;;;;6.79;100.00;98914.06;5091705;28;20230;-71
2022/01/05 09:11:21;;;;;;;13.23;11.50;;;;;;;6.98;100.00;98928.03;5090744;28;20200;-71
2022/01/05 09:13:49;;;;;;;14.17;12.40;;;;;;;7.09;100.00;98926.09;5091153;28;20234;-71
2022/01/05 09:16:17;;;;;;;15.27;12.87;;;;;;;7.16;100.00;98904.69;5091796;28;20286;-70
2022/01/05 09:18:43;;;;;;;15.53;13.40;;;;;;;7.25;100.00;98908.72;5091665;28;20221;-71
2022/01/05 09:21:10;;;;;;;18.17;12.80;;;;;;;7.34;100.00;98906.78;5091405;28;20769;-73
2022/01/05 09:23:38;;;;;;;18.23;12.67;;;;;;;7.41;100.00;98902.34;5090969;28;20199;-72
2022/01/05 09:26:04;;;;;;;20.03;12.97;;;;;;;7.49;100.00;98899.63;5089151;28;20231;-73
2022/01/05 09:28:31;;;;;;;18.30;12.87;;;;;;;7.57;100.00;98900.25;5089809;28;20203;-72
2022/01/05 09:31:00;;;;;;;16.13;13.43;;;;;;;7.66;100.00;98882.97;5089641;28;20750;-73
2022/01/05 09:33:27;;;;;;;16.17;13.20;;;;;;;7.66;100.00;98877.03;5087541;28;20310;-73
2022/01/05 09:36:03;;;;;;;15.20;12.37;;;;;;;7.75;100.00;98882.75;5087377;28;20214;-72
2022/01/05 09:41:56;;;;;;;16.00;12.97;;;;;;;7.78;100.00;98863.97;5089971;28;20908;-73
2022/01/05 09:44:10;;;;;;;25.07;15.93;;;;;;;7.88;100.00;98847.53;5090551;28;20206;-73
2022/01/05 09:46:47;;;;;;;26.83;17.77;;;;;;;8.04;100.00;98858.16;5090008;28;20196;-73
2022/01/05 09:49:19;;;;;;;29.23;17.90;;;;;;;8.05;100.00;98845.31;5090052;28;20305;-73
2022/01/05 09:51:51;;;;;;;18.87;13.73;;;;;;;8.20;100.00;98856.81;5090400;28;20290;-72
2022/01/05 09:54:19;;;;;;;19.50;13.60;;;;;;;8.28;100.00;98858.28;5090212;28;20290;-72
2022/01/05 09:56:46;;;;;;;14.93;11.87;;;;;;;8.38;100.00;98853.75;5089479;28;20629;-73
2022/01/05 09:59:16;;;;;;;42.70;31.00;;;;;;;8.43;100.00;98845.06;5089563;28;20235;-72
2022/01/05 10:01:45;;;;;;;15.77;12.80;;;;;;;8.56;100.00;98848.09;5089532;28;20322;-72
2022/01/05 10:04:14;;;;;;;20.97;17.57;;;;;;;8.69;100.00;98840.88;5088387;28;20227;-72
2022/01/05 10:06:41;;;;;;;23.23;18.40;;;;;;;8.72;100.00;98825.44;5086841;28;20206;-72
2022/01/05 10:09:09;;;;;;;14.27;12.73;;;;;;;8.89;100.00;98823.16;5084646;28;20279;-73
2022/01/05 10:11:36;;;;;;;29.93;19.03;;;;;;;9.03;100.00;98838.06;5088270;28;20196;-72
2022/01/05 10:14:06;;;;;;;21.43;17.63;;;;;;;9.11;100.00;98836.91;5089672;28;20575;-72
2022/01/05 10:16:33;;;;;;;13.20;12.03;;;;;;;9.22;100.00;98828.88;5089426;28;20199;-72
2022/01/05 10:19:02;;;;;;;14.30;12.27;;;;;;;9.32;100.00;98835.38;5089251;28;20217;-72
2022/01/05 10:21:35;;;;;;;16.13;12.43;;;;;;;9.41;100.00;98815.41;5089676;28;20290;-73
2022/01/05 10:24:02;;;;;;;16.67;12.97;;;;;;;9.52;100.00;98816.78;5089966;28;20199;-72
2022/01/05 10:26:31;;;;;;;17.97;12.93;;;;;;;9.60;100.00;98814.75;5089202;28;20222;-73
2022/01/05 10:29:00;;;;;;;18.20;13.80;;;;;;;9.72;100.00;98814.34;5088706;28;20282;-72
2022/01/05 10:31:29;;;;;;;18.27;14.47;;;;;;;9.75;100.00;98811.69;5087694;28;20278;-72
2022/01/05 10:33:56;;;;;;;20.13;13.90;;;;;;;9.81;100.00;98814.00;5089124;28;20222;-72
2022/01/05 10:36:25;;;;;;;15.97;14.17;;;;;;;9.83;100.00;98795.16;5088867;28;20211;-71
2022/01/05 10:38:54;;;;;;;21.10;13.10;;;;;;;9.96;100.00;98806.59;5088470;28;20200;-73
2022/01/05 10:41:23;;;;;;;23.40;13.80;;;;;;;10.01;100.00;98791.06;5087672;28;20199;-73
2022/01/05 10:44:11;;;;;;;17.80;14.17;;;;;;;10.05;100.00;98792.59;5086089;28;20202;-73
2022/01/05 10:46:40;;;;;;;16.33;12.73;;;;;;;10.08;100.00;98784.81;5087260;28;20205;-73
2022/01/05 10:49:08;;;;;;;17.93;13.63;;;;;;;10.19;100.00;98785.28;5088588;28;23078;-73
2022/01/05 10:51:37;;;;;;;18.93;13.27;;;;;;;10.27;100.00;98780.72;5086845;28;20745;-73
2022/01/05 10:54:15;;;;;;;16.17;12.87;;;;;;;10.32;100.00;98776.22;5089311;28;20564;-73
2022/01/05 10:56:42;;;;;;;15.47;11.90;;;;;;;10.24;100.00;98762.88;5086347;28;20216;-74
2022/01/05 10:59:09;;;;;;;17.73;12.90;;;;;;;10.41;100.00;98777.59;5087262;28;20306;-73
2022/01/05 11:01:37;;;;;;;18.20;13.60;;;;;;;10.44;100.00;98778.31;5087858;28;20717;-70
2022/01/05 11:04:17;;;;;;;23.43;14.87;;;;;;;10.40;100.00;98756.25;5089010;28;20261;-69
2022/01/05 11:07:02;;;;;;;17.67;13.67;;;;;;;10.58;100.00;98769.25;5087080;28;20298;-73
2022/01/05 11:09:30;;;;;;;17.17;12.70;;;;;;;10.58;100.00;98758.97;5088974;28;20203;-72
2022/01/05 11:11:57;;;;;;;15.57;12.90;;;;;;;10.66;100.00;98759.53;5088865;28;20683;-73
2022/01/05 11:14:30;;;;;;;18.53;14.07;;;;;;;10.47;100.00;98719.25;5087928;28;20220;-72
2022/01/05 11:16:58;;;;;;;20.43;13.20;;;;;;;10.75;100.00;98759.97;5088669;28;20256;-72
2022/01/05 11:19:27;;;;;;;15.30;13.80;;;;;;;10.76;100.00;98760.81;5088248;28;20218;-72
2022/01/05 11:22:08;;;;;;;35.10;20.17;;;;;;;10.84;100.00;98758.75;5089828;28;20203;-73
2022/01/05 11:24:38;;;;;;;290.93;93.07;;;;;;;10.88;100.00;98744.91;5087145;28;20218;-72
2022/01/05 11:27:07;;;;;;;263.92;102.65;;;;;;;10.91;100.00;98734.53;5087614;28;20448;-77